sensor_id;sensor_type;location;lat;lon;timestamp;P1;durP1;ratioP1;P2;durP2;ratioP2
38264;SDS011;24062;47.480;8.768;2022-08-21T00:02:27;3.93;;;1.77;;
38264;SDS011;24062;47.480;8.768;2022-08-21T00:04:54;6.40;;;1.97;;
38264;SDS011;24062;47.480;8.768;2022-08-21T00:07:21;4.93;;;1.90;;
38264;SDS011;24062;47.480;8.768;2022-08-21T00:09:48;5.13;;;1.83;;
38264;SDS011;24062;47.480;8.768;2022-08-21T00:12:16;1.97;;;1.47;;
38264;SDS011;24062;47.480;8.768;2022-08-21T00:14:43;2.37;;;2.13;;
38264;SDS011;24062;47.480;8.768;2022-08-21T00:17:10;2.73;;;2.17;;
38264;SDS011;24062;47.480;8.768;2022-08-21T00:19:37;2.00;;;1.73;;
38264;SDS011;24062;47.480;8.768;2022-08-21T00:22:04;2.07;;;1.87;;
38264;SDS011;24062;47.480;8.768;2022-08-21T00:24:31;3.70;;;2.40;;
38264;SDS011;24062;47.480;8.768;2022-08-21T00:26:58;2.30;;;1.80;;
38264;SDS011;24062;47.480;8.768;2022-08-21T00:29:26;2.10;;;1.90;;
38264;SDS011;24062;47.480;8.768;2022-08-21T00:31:53;4.07;;;1.87;;
38264;SDS011;24062;47.480;8.768;2022-08-21T00:34:20;3.30;;;1.60;;
38264;SDS011;24062;47.480;8.768;2022-08-21T00:36:47;3.00;;;2.43;;
38264;SDS011;24062;47.480;8.768;2022-08-21T00:39:13;4.43;;;2.23;;
38264;SDS011;24062;47.480;8.768;2022-08-21T00:41:41;4.53;;;2.20;;
38264;SDS011;24062;47.480;8.768;2022-08-21T00:44:09;2.20;;;2.00;;
38264;SDS011;24062;47.480;8.768;2022-08-21T00:46:40;3.60;;;2.00;;
38264;SDS011;24062;47.480;8.768;2022-08-21T00:49:10;3.23;;;1.80;;
38264;SDS011;24062;47.480;8.768;2022-08-21T00:51:39;3.17;;;2.03;;
38264;SDS011;24062;47.480;8.768;2022-08-21T00:54:12;2.50;;;2.27;;
38264;SDS011;24062;47.480;8.768;2022-08-21T00:56:40;2.23;;;2.03;;
38264;SDS011;24062;47.480;8.768;2022-08-21T00:59:08;3.87;;;2.77;;
38264;SDS011;24062;47.480;8.768;2022-08-21T01:01:35;12.40;;;2.80;;
38264;SDS011;24062;47.480;8.768;2022-08-21T01:04:03;2.90;;;2.47;;
38264;SDS011;24062;47.480;8.768;2022-08-21T01:06:30;4.20;;;2.13;;
38264;SDS011;24062;47.480;8.768;2022-08-21T01:08:57;5.10;;;2.53;;
38264;SDS011;24062;47.480;8.768;2022-08-21T01:11:24;5.37;;;2.30;;
38264;SDS011;24062;47.480;8.768;2022-08-21T01:13:51;9.37;;;3.20;;
38264;SDS011;24062;47.480;8.768;2022-08-21T01:16:20;8.60;;;2.83;;
38264;SDS011;24062;47.480;8.768;2022-08-21T01:18:48;2.80;;;2.50;;
38264;SDS011;24062;47.480;8.768;2022-08-21T01:21:18;4.13;;;1.83;;
38264;SDS011;24062;47.480;8.768;2022-08-21T01:23:47;2.40;;;2.10;;
38264;SDS011;24062;47.480;8.768;2022-08-21T01:26:24;2.63;;;2.43;;
38264;SDS011;24062;47.480;8.768;2022-08-21T01:28:54;3.00;;;1.70;;
38264;SDS011;24062;47.480;8.768;2022-08-21T01:31:25;7.93;;;2.10;;
38264;SDS011;24062;47.480;8.768;2022-08-21T01:33:54;2.90;;;2.10;;
38264;SDS011;24062;47.480;8.768;2022-08-21T01:36:23;7.10;;;2.80;;
38264;SDS011;24062;47.480;8.768;2022-08-21T01:38:51;3.30;;;2.47;;
38264;SDS011;24062;47.480;8.768;2022-08-21T01:41:18;3.83;;;2.73;;
38264;SDS011;24062;47.480;8.768;2022-08-21T01:43:45;3.60;;;2.67;;
38264;SDS011;24062;47.480;8.768;2022-08-21T01:46:12;2.43;;;2.20;;
38264;SDS011;24062;47.480;8.768;2022-08-21T01:48:40;6.67;;;2.30;;
38264;SDS011;24062;47.480;8.768;2022-08-21T01:51:08;3.40;;;2.13;;
38264;SDS011;24062;47.480;8.768;2022-08-21T01:53:36;2.23;;;1.93;;
38264;SDS011;24062;47.480;8.768;2022-08-21T01:56:04;2.57;;;2.37;;
38264;SDS011;24062;47.480;8.768;2022-08-21T01:58:32;4.83;;;2.50;;
38264;SDS011;24062;47.480;8.768;2022-08-21T02:00:59;6.20;;;2.60;;
38264;SDS011;24062;47.480;8.768;2022-08-21T02:03:27;5.70;;;2.20;;
38264;SDS011;24062;47.480;8.768;2022-08-21T02:05:54;2.60;;;2.40;;
38264;SDS011;24062;47.480;8.768;2022-08-21T02:08:21;4.60;;;2.10;;
38264;SDS011;24062;47.480;8.768;2022-08-21T02:10:50;2.60;;;2.40;;
38264;SDS011;24062;47.480;8.768;2022-08-21T02:13:18;5.00;;;2.30;;
38264;SDS011;24062;47.480;8.768;2022-08-21T02:15:45;2.80;;;2.60;;
38264;SDS011;24062;47.480;8.768;2022-08-21T02:18:12;3.60;;;2.43;;
38264;SDS011;24062;47.480;8.768;2022-08-21T02:20:40;2.50;;;2.30;;
38264;SDS011;24062;47.480;8.768;2022-08-21T02:23:09;2.67;;;2.47;;
38264;SDS011;24062;47.480;8.768;2022-08-21T02:25:36;2.37;;;2.17;;
38264;SDS011;24062;47.480;8.768;2022-08-21T02:28:06;4.63;;;2.27;;
38264;SDS011;24062;47.480;8.768;2022-08-21T02:30:37;3.07;;;2.63;;
38264;SDS011;24062;47.480;8.768;2022-08-21T02:33:06;3.13;;;2.27;;
38264;SDS011;24062;47.480;8.768;2022-08-21T02:35:34;4.20;;;2.60;;
38264;SDS011;24062;47.480;8.768;2022-08-21T02:38:02;2.87;;;2.67;;
38264;SDS011;24062;47.480;8.768;2022-08-21T02:40:34;5.77;;;2.30;;
38264;SDS011;24062;47.480;8.768;2022-08-21T02:43:04;2.47;;;2.27;;
38264;SDS011;24062;47.480;8.768;2022-08-21T02:45:34;5.73;;;2.30;;
38264;SDS011;24062;47.480;8.768;2022-08-21T02:48:03;2.63;;;2.43;;
38264;SDS011;24062;47.480;8.768;2022-08-21T02:50:32;5.30;;;2.27;;
38264;SDS011;24062;47.480;8.768;2022-08-21T02:53:00;3.77;;;1.80;;
38264;SDS011;24062;47.480;8.768;2022-08-21T02:55:29;4.97;;;2.07;;
38264;SDS011;24062;47.480;8.768;2022-08-21T02:57:57;3.40;;;2.43;;
38264;SDS011;24062;47.480;8.768;2022-08-21T03:00:27;4.40;;;2.70;;
38264;SDS011;24062;47.480;8.768;2022-08-21T03:02:55;2.53;;;1.97;;
38264;SDS011;24062;47.480;8.768;2022-08-21T03:05:23;3.33;;;2.43;;
38264;SDS011;24062;47.480;8.768;2022-08-21T03:07:51;2.73;;;2.40;;
38264;SDS011;24062;47.480;8.768;2022-08-21T03:10:18;3.60;;;2.23;;
38264;SDS011;24062;47.480;8.768;2022-08-21T03:12:47;6.10;;;2.10;;
38264;SDS011;24062;47.480;8.768;2022-08-21T03:15:15;3.60;;;2.10;;
38264;SDS011;24062;47.480;8.768;2022-08-21T03:17:45;2.47;;;2.20;;
38264;SDS011;24062;47.480;8.768;2022-08-21T03:20:13;2.50;;;2.30;;
38264;SDS011;24062;47.480;8.768;2022-08-21T03:22:43;2.50;;;2.30;;
38264;SDS011;24062;47.480;8.768;2022-08-21T03:25:09;3.20;;;2.43;;
38264;SDS011;24062;47.480;8.768;2022-08-21T03:27:36;4.57;;;2.40;;
38264;SDS011;24062;47.480;8.768;2022-08-21T03:30:04;5.17;;;2.93;;
38264;SDS011;24062;47.480;8.768;2022-08-21T03:32:32;2.33;;;2.13;;
38264;SDS011;24062;47.480;8.768;2022-08-21T03:35:02;3.83;;;2.27;;
38264;SDS011;24062;47.480;8.768;2022-08-21T03:37:29;2.90;;;2.50;;
38264;SDS011;24062;47.480;8.768;2022-08-21T03:39:57;4.37;;;2.40;;
38264;SDS011;24062;47.480;8.768;2022-08-21T03:42:24;2.63;;;1.90;;
38264;SDS011;24062;47.480;8.768;2022-08-21T03:44:50;2.47;;;1.73;;
38264;SDS011;24062;47.480;8.768;2022-08-21T03:47:17;4.03;;;2.50;;
38264;SDS011;24062;47.480;8.768;2022-08-21T03:49:44;4.43;;;2.80;;
38264;SDS011;24062;47.480;8.768;2022-08-21T03:52:13;4.90;;;2.60;;
38264;SDS011;24062;47.480;8.768;2022-08-21T03:54:41;6.93;;;2.37;;
38264;SDS011;24062;47.480;8.768;2022-08-21T03:57:08;5.23;;;2.30;;
38264;SDS011;24062;47.480;8.768;2022-08-21T03:59:35;5.57;;;2.87;;
38264;SDS011;24062;47.480;8.768;2022-08-21T04:02:04;3.40;;;2.30;;
38264;SDS011;24062;47.480;8.768;2022-08-21T04:04:32;3.20;;;1.90;;
38264;SDS011;24062;47.480;8.768;2022-08-21T04:07:00;3.90;;;2.00;;
38264;SDS011;24062;47.480;8.768;2022-08-21T04:09:28;3.30;;;1.80;;
38264;SDS011;24062;47.480;8.768;2022-08-21T04:11:55;2.50;;;1.80;;
38264;SDS011;24062;47.480;8.768;2022-08-21T04:14:22;2.53;;;2.10;;
38264;SDS011;24062;47.480;8.768;2022-08-21T04:16:49;4.03;;;2.70;;
38264;SDS011;24062;47.480;8.768;2022-08-21T04:19:16;10.97;;;2.57;;
38264;SDS011;24062;47.480;8.768;2022-08-21T04:21:43;7.10;;;3.00;;
38264;SDS011;24062;47.480;8.768;2022-08-21T04:24:10;3.63;;;2.30;;
38264;SDS011;24062;47.480;8.768;2022-08-21T04:26:38;2.93;;;2.47;;
38264;SDS011;24062;47.480;8.768;2022-08-21T04:29:05;3.23;;;2.13;;
38264;SDS011;24062;47.480;8.768;2022-08-21T04:31:32;3.10;;;2.80;;
38264;SDS011;24062;47.480;8.768;2022-08-21T04:34:00;3.60;;;2.13;;
38264;SDS011;24062;47.480;8.768;2022-08-21T04:36:26;2.70;;;2.40;;
38264;SDS011;24062;47.480;8.768;2022-08-21T04:38:53;3.40;;;2.73;;
38264;SDS011;24062;47.480;8.768;2022-08-21T04:41:20;4.57;;;2.50;;
38264;SDS011;24062;47.480;8.768;2022-08-21T04:43:49;2.90;;;2.50;;
38264;SDS011;24062;47.480;8.768;2022-08-21T04:46:16;3.57;;;3.17;;
38264;SDS011;24062;47.480;8.768;2022-08-21T04:48:43;9.17;;;4.00;;
38264;SDS011;24062;47.480;8.768;2022-08-21T04:51:11;5.43;;;4.07;;
38264;SDS011;24062;47.480;8.768;2022-08-21T04:53:43;5.30;;;3.17;;
38264;SDS011;24062;47.480;8.768;2022-08-21T04:56:14;4.23;;;3.27;;
38264;SDS011;24062;47.480;8.768;2022-08-21T04:58:45;6.77;;;3.53;;
38264;SDS011;24062;47.480;8.768;2022-08-21T05:01:15;7.90;;;4.67;;
38264;SDS011;24062;47.480;8.768;2022-08-21T05:03:44;5.50;;;4.60;;
38264;SDS011;24062;47.480;8.768;2022-08-21T05:06:13;11.20;;;4.77;;
38264;SDS011;24062;47.480;8.768;2022-08-21T05:08:42;9.53;;;5.30;;
38264;SDS011;24062;47.480;8.768;2022-08-21T05:11:13;7.43;;;5.03;;
38264;SDS011;24062;47.480;8.768;2022-08-21T05:13:40;5.20;;;4.33;;
38264;SDS011;24062;47.480;8.768;2022-08-21T05:16:07;7.43;;;4.97;;
38264;SDS011;24062;47.480;8.768;2022-08-21T05:18:36;6.23;;;4.50;;
38264;SDS011;24062;47.480;8.768;2022-08-21T05:21:03;5.50;;;3.67;;
38264;SDS011;24062;47.480;8.768;2022-08-21T05:23:30;4.03;;;3.63;;
38264;SDS011;24062;47.480;8.768;2022-08-21T05:25:57;8.13;;;4.40;;
38264;SDS011;24062;47.480;8.768;2022-08-21T05:28:24;4.43;;;3.60;;
38264;SDS011;24062;47.480;8.768;2022-08-21T05:30:51;5.57;;;3.93;;
38264;SDS011;24062;47.480;8.768;2022-08-21T05:33:18;5.77;;;4.70;;
38264;SDS011;24062;47.480;8.768;2022-08-21T05:35:48;7.73;;;3.20;;
38264;SDS011;24062;47.480;8.768;2022-08-21T05:38:16;4.70;;;4.20;;
38264;SDS011;24062;47.480;8.768;2022-08-21T05:40:43;6.00;;;4.67;;
38264;SDS011;24062;47.480;8.768;2022-08-21T05:43:10;5.87;;;4.90;;
38264;SDS011;24062;47.480;8.768;2022-08-21T05:45:36;7.53;;;5.07;;
38264;SDS011;24062;47.480;8.768;2022-08-21T05:48:07;8.03;;;5.40;;
38264;SDS011;24062;47.480;8.768;2022-08-21T05:50:34;11.47;;;6.00;;
38264;SDS011;24062;47.480;8.768;2022-08-21T05:53:03;8.03;;;5.00;;
38264;SDS011;24062;47.480;8.768;2022-08-21T05:55:30;21.63;;;7.30;;
38264;SDS011;24062;47.480;8.768;2022-08-21T05:57:57;12.00;;;6.73;;
38264;SDS011;24062;47.480;8.768;2022-08-21T06:00:24;21.53;;;7.70;;
38264;SDS011;24062;47.480;8.768;2022-08-21T06:02:51;22.93;;;8.53;;
38264;SDS011;24062;47.480;8.768;2022-08-21T06:05:18;13.30;;;7.60;;
38264;SDS011;24062;47.480;8.768;2022-08-21T06:07:45;10.80;;;7.00;;
38264;SDS011;24062;47.480;8.768;2022-08-21T06:10:14;14.03;;;6.50;;
38264;SDS011;24062;47.480;8.768;2022-08-21T06:12:40;7.77;;;6.17;;
38264;SDS011;24062;47.480;8.768;2022-08-21T06:15:07;8.33;;;6.43;;
38264;SDS011;24062;47.480;8.768;2022-08-21T06:17:34;8.10;;;6.60;;
38264;SDS011;24062;47.480;8.768;2022-08-21T06:20:02;8.53;;;6.60;;
38264;SDS011;24062;47.480;8.768;2022-08-21T06:22:30;8.53;;;6.80;;
38264;SDS011;24062;47.480;8.768;2022-08-21T06:24:57;9.00;;;5.73;;
38264;SDS011;24062;47.480;8.768;2022-08-21T06:27:25;10.40;;;5.37;;
38264;SDS011;24062;47.480;8.768;2022-08-21T06:29:52;6.30;;;5.57;;
38264;SDS011;24062;47.480;8.768;2022-08-21T06:32:19;6.37;;;5.10;;
38264;SDS011;24062;47.480;8.768;2022-08-21T06:34:46;7.10;;;5.10;;
38264;SDS011;24062;47.480;8.768;2022-08-21T06:37:12;5.03;;;4.63;;
38264;SDS011;24062;47.480;8.768;2022-08-21T06:39:39;4.63;;;4.23;;
38264;SDS011;24062;47.480;8.768;2022-08-21T06:42:09;4.43;;;3.93;;
38264;SDS011;24062;47.480;8.768;2022-08-21T06:44:41;6.17;;;5.67;;
38264;SDS011;24062;47.480;8.768;2022-08-21T06:47:08;9.80;;;5.83;;
38264;SDS011;24062;47.480;8.768;2022-08-21T06:49:34;6.00;;;5.40;;
38264;SDS011;24062;47.480;8.768;2022-08-21T06:52:02;5.30;;;4.80;;
38264;SDS011;24062;47.480;8.768;2022-08-21T06:54:29;4.50;;;4.13;;
38264;SDS011;24062;47.480;8.768;2022-08-21T06:56:56;5.33;;;4.90;;
38264;SDS011;24062;47.480;8.768;2022-08-21T06:59:23;5.33;;;4.83;;
38264;SDS011;24062;47.480;8.768;2022-08-21T07:01:51;6.30;;;4.20;;
38264;SDS011;24062;47.480;8.768;2022-08-21T07:04:18;4.97;;;4.57;;
38264;SDS011;24062;47.480;8.768;2022-08-21T07:06:45;3.33;;;3.03;;
38264;SDS011;24062;47.480;8.768;2022-08-21T07:09:12;4.53;;;4.17;;
38264;SDS011;24062;47.480;8.768;2022-08-21T07:11:39;3.80;;;3.50;;
38264;SDS011;24062;47.480;8.768;2022-08-21T07:14:07;3.50;;;3.20;;
38264;SDS011;24062;47.480;8.768;2022-08-21T07:16:34;5.20;;;4.20;;
38264;SDS011;24062;47.480;8.768;2022-08-21T07:19:02;3.87;;;3.57;;
38264;SDS011;24062;47.480;8.768;2022-08-21T07:21:29;3.50;;;3.20;;
38264;SDS011;24062;47.480;8.768;2022-08-21T07:23:56;3.23;;;2.93;;
38264;SDS011;24062;47.480;8.768;2022-08-21T07:26:23;3.40;;;3.10;;
38264;SDS011;24062;47.480;8.768;2022-08-21T07:28:50;2.83;;;2.63;;
38264;SDS011;24062;47.480;8.768;2022-08-21T07:31:18;3.37;;;3.00;;
38264;SDS011;24062;47.480;8.768;2022-08-21T07:33:47;3.50;;;3.20;;
38264;SDS011;24062;47.480;8.768;2022-08-21T07:36:16;3.13;;;2.93;;
38264;SDS011;24062;47.480;8.768;2022-08-21T07:38:43;2.63;;;2.43;;
38264;SDS011;24062;47.480;8.768;2022-08-21T07:41:12;2.70;;;2.50;;
38264;SDS011;24062;47.480;8.768;2022-08-21T07:43:41;2.33;;;2.13;;
38264;SDS011;24062;47.480;8.768;2022-08-21T07:46:09;5.50;;;1.93;;
38264;SDS011;24062;47.480;8.768;2022-08-21T07:48:36;4.93;;;2.60;;
38264;SDS011;24062;47.480;8.768;2022-08-21T07:51:04;3.90;;;2.20;;
38264;SDS011;24062;47.480;8.768;2022-08-21T07:53:35;3.40;;;2.10;;
38264;SDS011;24062;47.480;8.768;2022-08-21T07:56:03;2.57;;;2.10;;
38264;SDS011;24062;47.480;8.768;2022-08-21T07:58:30;3.07;;;1.60;;
38264;SDS011;24062;47.480;8.768;2022-08-21T08:00:58;2.80;;;2.13;;
38264;SDS011;24062;47.480;8.768;2022-08-21T08:03:25;1.97;;;1.70;;
38264;SDS011;24062;47.480;8.768;2022-08-21T08:05:52;1.80;;;1.50;;
38264;SDS011;24062;47.480;8.768;2022-08-21T08:08:19;2.90;;;1.40;;
38264;SDS011;24062;47.480;8.768;2022-08-21T08:10:47;1.97;;;1.50;;
38264;SDS011;24062;47.480;8.768;2022-08-21T08:13:15;1.63;;;1.27;;
38264;SDS011;24062;47.480;8.768;2022-08-21T08:15:42;1.80;;;1.30;;
38264;SDS011;24062;47.480;8.768;2022-08-21T08:18:09;1.90;;;1.43;;
38264;SDS011;24062;47.480;8.768;2022-08-21T08:20:36;2.63;;;1.77;;
38264;SDS011;24062;47.480;8.768;2022-08-21T08:23:02;2.00;;;1.50;;
38264;SDS011;24062;47.480;8.768;2022-08-21T08:25:29;2.50;;;1.37;;
38264;SDS011;24062;47.480;8.768;2022-08-21T08:27:58;2.10;;;1.90;;
38264;SDS011;24062;47.480;8.768;2022-08-21T08:30:24;2.00;;;1.60;;
38264;SDS011;24062;47.480;8.768;2022-08-21T08:32:51;1.70;;;1.50;;
38264;SDS011;24062;47.480;8.768;2022-08-21T08:35:18;1.97;;;1.77;;
38264;SDS011;24062;47.480;8.768;2022-08-21T08:37:45;2.10;;;1.90;;
38264;SDS011;24062;47.480;8.768;2022-08-21T08:40:13;2.93;;;2.63;;
38264;SDS011;24062;47.480;8.768;2022-08-21T08:42:43;2.63;;;2.43;;
38264;SDS011;24062;47.480;8.768;2022-08-21T08:45:15;4.30;;;2.67;;
38264;SDS011;24062;47.480;8.768;2022-08-21T08:47:44;3.07;;;2.80;;
38264;SDS011;24062;47.480;8.768;2022-08-21T08:50:16;3.67;;;2.67;;
38264;SDS011;24062;47.480;8.768;2022-08-21T08:52:48;4.67;;;3.07;;
38264;SDS011;24062;47.480;8.768;2022-08-21T08:55:19;3.53;;;3.23;;
38264;SDS011;24062;47.480;8.768;2022-08-21T08:57:50;3.80;;;3.50;;
38264;SDS011;24062;47.480;8.768;2022-08-21T09:00:20;3.20;;;2.90;;
38264;SDS011;24062;47.480;8.768;2022-08-21T09:02:48;3.23;;;2.73;;
38264;SDS011;24062;47.480;8.768;2022-08-21T09:05:23;4.63;;;2.90;;
38264;SDS011;24062;47.480;8.768;2022-08-21T09:07:59;3.33;;;3.03;;
38264;SDS011;24062;47.480;8.768;2022-08-21T09:10:44;2.93;;;2.73;;
38264;SDS011;24062;47.480;8.768;2022-08-21T09:13:18;2.60;;;2.40;;
38264;SDS011;24062;47.480;8.768;2022-08-21T09:15:53;3.33;;;3.03;;
38264;SDS011;24062;47.480;8.768;2022-08-21T09:18:30;3.07;;;2.80;;
38264;SDS011;24062;47.480;8.768;2022-08-21T09:21:07;2.50;;;2.30;;
38264;SDS011;24062;47.480;8.768;2022-08-21T09:23:43;2.93;;;2.63;;
38264;SDS011;24062;47.480;8.768;2022-08-21T09:26:20;3.20;;;2.90;;
38264;SDS011;24062;47.480;8.768;2022-08-21T09:28:51;3.77;;;3.17;;
38264;SDS011;24062;47.480;8.768;2022-08-21T09:31:25;6.60;;;3.03;;
38264;SDS011;24062;47.480;8.768;2022-08-21T09:33:58;3.00;;;2.40;;
38264;SDS011;24062;47.480;8.768;2022-08-21T09:36:30;2.53;;;2.33;;
38264;SDS011;24062;47.480;8.768;2022-08-21T09:39:03;3.00;;;2.70;;
38264;SDS011;24062;47.480;8.768;2022-08-21T09:41:31;3.10;;;2.80;;
38264;SDS011;24062;47.480;8.768;2022-08-21T09:44:00;3.17;;;2.67;;
38264;SDS011;24062;47.480;8.768;2022-08-21T09:46:29;2.90;;;2.60;;
38264;SDS011;24062;47.480;8.768;2022-08-21T09:48:57;8.73;;;2.30;;
38264;SDS011;24062;47.480;8.768;2022-08-21T09:51:27;3.83;;;2.30;;
38264;SDS011;24062;47.480;8.768;2022-08-21T09:53:56;3.17;;;1.90;;
38264;SDS011;24062;47.480;8.768;2022-08-21T09:56:37;2.70;;;2.20;;
38264;SDS011;24062;47.480;8.768;2022-08-21T09:59:25;3.87;;;2.57;;
38264;SDS011;24062;47.480;8.768;2022-08-21T10:01:59;4.10;;;3.10;;
38264;SDS011;24062;47.480;8.768;2022-08-21T10:04:30;2.40;;;1.77;;
38264;SDS011;24062;47.480;8.768;2022-08-21T10:07:08;2.40;;;2.13;;
38264;SDS011;24062;47.480;8.768;2022-08-21T10:09:36;5.23;;;2.10;;
38264;SDS011;24062;47.480;8.768;2022-08-21T10:12:08;3.60;;;2.60;;
38264;SDS011;24062;47.480;8.768;2022-08-21T10:14:44;4.30;;;2.10;;
38264;SDS011;24062;47.480;8.768;2022-08-21T10:17:21;2.70;;;1.63;;
38264;SDS011;24062;47.480;8.768;2022-08-21T10:19:58;3.50;;;1.60;;
38264;SDS011;24062;47.480;8.768;2022-08-21T10:22:32;3.03;;;1.43;;
38264;SDS011;24062;47.480;8.768;2022-08-21T10:25:07;3.33;;;1.50;;
38264;SDS011;24062;47.480;8.768;2022-08-21T10:27:45;3.53;;;1.97;;
38264;SDS011;24062;47.480;8.768;2022-08-21T10:30:21;3.67;;;1.90;;
38264;SDS011;24062;47.480;8.768;2022-08-21T10:33:13;2.27;;;1.50;;
38264;SDS011;24062;47.480;8.768;2022-08-21T10:35:55;2.67;;;1.77;;
38264;SDS011;24062;47.480;8.768;2022-08-21T10:38:37;4.20;;;2.00;;
38264;SDS011;24062;47.480;8.768;2022-08-21T10:41:32;3.03;;;1.50;;
38264;SDS011;24062;47.480;8.768;2022-08-21T10:44:13;2.93;;;1.53;;
38264;SDS011;24062;47.480;8.768;2022-08-21T10:46:50;3.50;;;1.67;;
38264;SDS011;24062;47.480;8.768;2022-08-21T10:49:24;2.47;;;1.67;;
38264;SDS011;24062;47.480;8.768;2022-08-21T10:52:04;3.17;;;1.70;;
38264;SDS011;24062;47.480;8.768;2022-08-21T10:54:46;3.73;;;1.60;;
38264;SDS011;24062;47.480;8.768;2022-08-21T10:57:19;3.17;;;1.90;;
38264;SDS011;24062;47.480;8.768;2022-08-21T10:59:55;3.60;;;1.70;;
38264;SDS011;24062;47.480;8.768;2022-08-21T11:02:26;2.23;;;1.60;;
38264;SDS011;24062;47.480;8.768;2022-08-21T11:05:02;2.80;;;1.70;;
38264;SDS011;24062;47.480;8.768;2022-08-21T11:07:39;7.30;;;1.73;;
38264;SDS011;24062;47.480;8.768;2022-08-21T11:10:15;3.10;;;1.60;;
38264;SDS011;24062;47.480;8.768;2022-08-21T11:12:46;2.30;;;1.60;;
38264;SDS011;24062;47.480;8.768;2022-08-21T11:15:22;2.17;;;1.57;;
38264;SDS011;24062;47.480;8.768;2022-08-21T11:17:57;2.80;;;1.50;;
38264;SDS011;24062;47.480;8.768;2022-08-21T11:20:34;2.87;;;1.50;;
38264;SDS011;24062;47.480;8.768;2022-08-21T11:23:07;2.87;;;1.40;;
38264;SDS011;24062;47.480;8.768;2022-08-21T11:25:42;3.40;;;1.63;;
38264;SDS011;24062;47.480;8.768;2022-08-21T11:28:14;3.27;;;1.80;;
38264;SDS011;24062;47.480;8.768;2022-08-21T11:30:47;2.60;;;1.40;;
38264;SDS011;24062;47.480;8.768;2022-08-21T11:33:26;2.93;;;1.83;;
38264;SDS011;24062;47.480;8.768;2022-08-21T11:36:08;2.80;;;1.30;;
38264;SDS011;24062;47.480;8.768;2022-08-21T11:38:42;2.73;;;1.30;;
38264;SDS011;24062;47.480;8.768;2022-08-21T11:41:15;4.73;;;1.40;;
38264;SDS011;24062;47.480;8.768;2022-08-21T11:43:48;2.87;;;1.20;;
38264;SDS011;24062;47.480;8.768;2022-08-21T11:46:23;2.53;;;1.20;;
38264;SDS011;24062;47.480;8.768;2022-08-21T11:48:59;2.63;;;0.90;;
38264;SDS011;24062;47.480;8.768;2022-08-21T11:51:38;2.83;;;1.33;;
38264;SDS011;24062;47.480;8.768;2022-08-21T11:54:13;3.00;;;1.67;;
38264;SDS011;24062;47.480;8.768;2022-08-21T11:56:48;2.30;;;1.17;;
38264;SDS011;24062;47.480;8.768;2022-08-21T11:59:20;4.70;;;1.50;;
38264;SDS011;24062;47.480;8.768;2022-08-21T12:01:52;2.50;;;1.37;;
38264;SDS011;24062;47.480;8.768;2022-08-21T12:04:22;3.30;;;1.17;;
38264;SDS011;24062;47.480;8.768;2022-08-21T12:06:55;1.90;;;0.90;;
38264;SDS011;24062;47.480;8.768;2022-08-21T12:09:30;1.90;;;1.03;;
38264;SDS011;24062;47.480;8.768;2022-08-21T12:12:02;2.40;;;1.35;;
38264;SDS011;24062;47.480;8.768;2022-08-21T12:14:36;5.60;;;1.20;;
38264;SDS011;24062;47.480;8.768;2022-08-21T12:17:07;3.25;;;1.40;;
38264;SDS011;24062;47.480;8.768;2022-08-21T12:19:43;3.45;;;1.45;;
38264;SDS011;24062;47.480;8.768;2022-08-21T12:22:12;2.38;;;1.52;;
38264;SDS011;24062;47.480;8.768;2022-08-21T12:24:40;1.88;;;1.08;;
38264;SDS011;24062;47.480;8.768;2022-08-21T12:27:13;2.58;;;1.23;;
38264;SDS011;24062;47.480;8.768;2022-08-21T12:29:51;2.78;;;1.30;;
38264;SDS011;24062;47.480;8.768;2022-08-21T12:32:22;3.08;;;1.40;;
38264;SDS011;24062;47.480;8.768;2022-08-21T12:34:52;1.92;;;1.02;;
38264;SDS011;24062;47.480;8.768;2022-08-21T12:37:25;2.10;;;1.27;;
38264;SDS011;24062;47.480;8.768;2022-08-21T12:40:01;2.20;;;1.00;;
38264;SDS011;24062;47.480;8.768;2022-08-21T12:42:31;4.90;;;1.48;;
38264;SDS011;24062;47.480;8.768;2022-08-21T12:45:03;7.15;;;1.25;;
38264;SDS011;24062;47.480;8.768;2022-08-21T12:47:45;3.83;;;1.05;;
38264;SDS011;24062;47.480;8.768;2022-08-21T12:50:18;1.60;;;0.80;;
38264;SDS011;24062;47.480;8.768;2022-08-21T12:52:51;2.15;;;1.17;;
38264;SDS011;24062;47.480;8.768;2022-08-21T12:55:27;2.17;;;1.20;;
38264;SDS011;24062;47.480;8.768;2022-08-21T12:57:56;2.10;;;1.10;;
38264;SDS011;24062;47.480;8.768;2022-08-21T13:00:24;1.80;;;0.90;;
38264;SDS011;24062;47.480;8.768;2022-08-21T13:02:55;2.20;;;1.00;;
38264;SDS011;24062;47.480;8.768;2022-08-21T13:05:27;2.60;;;1.20;;
38264;SDS011;24062;47.480;8.768;2022-08-21T13:07:58;2.08;;;1.38;;
38264;SDS011;24062;47.480;8.768;2022-08-21T13:10:29;2.17;;;1.00;;
38264;SDS011;24062;47.480;8.768;2022-08-21T13:13:00;1.92;;;1.40;;
38264;SDS011;24062;47.480;8.768;2022-08-21T13:15:30;2.88;;;1.10;;
38264;SDS011;24062;47.480;8.768;2022-08-21T13:18:00;1.85;;;0.95;;
38264;SDS011;24062;47.480;8.768;2022-08-21T13:20:28;3.20;;;0.95;;
38264;SDS011;24062;47.480;8.768;2022-08-21T13:22:59;1.90;;;1.00;;
38264;SDS011;24062;47.480;8.768;2022-08-21T13:25:27;4.53;;;0.93;;
38264;SDS011;24062;47.480;8.768;2022-08-21T13:27:57;1.85;;;0.85;;
38264;SDS011;24062;47.480;8.768;2022-08-21T13:30:26;4.50;;;0.95;;
38264;SDS011;24062;47.480;8.768;2022-08-21T13:32:55;1.70;;;0.80;;
38264;SDS011;24062;47.480;8.768;2022-08-21T13:35:24;1.55;;;0.70;;
38264;SDS011;24062;47.480;8.768;2022-08-21T13:37:52;1.70;;;0.80;;
38264;SDS011;24062;47.480;8.768;2022-08-21T13:40:24;1.48;;;0.70;;
38264;SDS011;24062;47.480;8.768;2022-08-21T13:42:52;2.05;;;0.90;;
38264;SDS011;24062;47.480;8.768;2022-08-21T13:45:22;1.92;;;1.05;;
38264;SDS011;24062;47.480;8.768;2022-08-21T13:47:52;2.58;;;0.82;;
38264;SDS011;24062;47.480;8.768;2022-08-21T13:50:21;1.80;;;0.80;;
38264;SDS011;24062;47.480;8.768;2022-08-21T13:53:00;2.33;;;0.95;;
38264;SDS011;24062;47.480;8.768;2022-08-21T13:55:35;1.70;;;0.75;;
38264;SDS011;24062;47.480;8.768;2022-08-21T13:58:04;1.80;;;0.90;;
38264;SDS011;24062;47.480;8.768;2022-08-21T14:00:33;1.65;;;0.70;;
38264;SDS011;24062;47.480;8.768;2022-08-21T14:03:04;1.75;;;0.65;;
38264;SDS011;24062;47.480;8.768;2022-08-21T14:05:35;6.78;;;0.90;;
38264;SDS011;24062;47.480;8.768;2022-08-21T14:08:05;1.50;;;0.65;;
38264;SDS011;24062;47.480;8.768;2022-08-21T14:10:36;1.52;;;0.77;;
38264;SDS011;24062;47.480;8.768;2022-08-21T14:13:14;2.25;;;1.08;;
38264;SDS011;24062;47.480;8.768;2022-08-21T14:15:56;1.88;;;0.98;;
38264;SDS011;24062;47.480;8.768;2022-08-21T14:18:24;2.22;;;1.08;;
38264;SDS011;24062;47.480;8.768;2022-08-21T14:20:52;1.77;;;0.73;;
38264;SDS011;24062;47.480;8.768;2022-08-21T14:23:30;2.08;;;0.93;;
38264;SDS011;24062;47.480;8.768;2022-08-21T14:25:59;1.73;;;0.90;;
38264;SDS011;24062;47.480;8.768;2022-08-21T14:28:29;2.30;;;1.00;;
38264;SDS011;24062;47.480;8.768;2022-08-21T14:30:58;2.55;;;0.98;;
38264;SDS011;24062;47.480;8.768;2022-08-21T14:33:37;1.92;;;1.00;;
38264;SDS011;24062;47.480;8.768;2022-08-21T14:36:04;2.80;;;1.00;;
38264;SDS011;24062;47.480;8.768;2022-08-21T14:38:31;1.70;;;0.90;;
38264;SDS011;24062;47.480;8.768;2022-08-21T14:41:04;1.98;;;1.10;;
38264;SDS011;24062;47.480;8.768;2022-08-21T14:43:37;1.70;;;0.80;;
38264;SDS011;24062;47.480;8.768;2022-08-21T14:46:03;1.60;;;0.70;;
38264;SDS011;24062;47.480;8.768;2022-08-21T14:48:31;2.15;;;0.70;;
38264;SDS011;24062;47.480;8.768;2022-08-21T14:50:57;1.60;;;0.88;;
38264;SDS011;24062;47.480;8.768;2022-08-21T14:53:24;1.70;;;0.90;;
38264;SDS011;24062;47.480;8.768;2022-08-21T14:55:51;1.75;;;0.60;;
38264;SDS011;24062;47.480;8.768;2022-08-21T14:58:35;2.28;;;1.25;;
38264;SDS011;24062;47.480;8.768;2022-08-21T15:01:04;1.48;;;0.80;;
38264;SDS011;24062;47.480;8.768;2022-08-21T15:03:32;2.33;;;0.77;;
38264;SDS011;24062;47.480;8.768;2022-08-21T15:05:59;1.40;;;0.70;;